메인 페이지
METAR-TAF:

METAR-TAF

공항 :

Stigler, 오클라호마, 미국

위도: 35-17-17N, 경도: 095-05-38W, 고도: 183m

현재 날씨관측

예보는 17분 전, 04:35시(UTC)에 발표되었습니다.
3kt
온도 9°C
습도 66%
기압 1024 hPa
시정: 16.1km
맑음

METAR: KGZL 220435Z AUTO 10003KT 10SM CLR 09/03 A3023 RMK AO2

시각: 23:52 (04:52 UTC)


TAF: 누락

4,000개 이상의 공항 관측 자료 및 예보 (METAR 및 TAF 보고).

지도상에서 검색 가능한 기상관측소가 노란 점과 빨간 점으로 표시되어 있습니다.

기상관측소 명을 보려면 표시 위로 마우스를 이동하세요.

날씨 관측과 예보를 보려면 클릭하세요.

지도 변경 : 확대하려면 엑스 표시가 있는 녹색 버튼, 축소하려면 빼기 표시가 있는 녹색 버튼, 다음 페이지의 지도를 보려면 녹색 화살표를 클릭하세요.


METAR-TAF: